Grimes, California
Current Conditions -  °F | °C
As of 9:53 AM on Monday 22 Dec 2014 (Local Time) from KMYV Reporting Station
Overcast Overcast  
Wind Chill: 56°   Ceiling: 500
Heat Index: 56°   Visibility: 10mi
Dew Point: 54°   Wind: 8mph
Humidity: 93%   Direction: 360°N
Pressure: 30.3"   Gusts: NA
Location:  39.07°N, 121.9°W
Report Text: KMYV 221753Z AUTO 36007KT 10SM OVC005 13/12 A3030 RMK AO2 SLP263 T01330122 10139 20117 51011
Loading
Personal Weather Stations






























Interactive Weather Map New forecast layout! Learn more

10-Day Weather Forecast

Advertisements
Track Severe Weather on mobile